createdAt,value
2022-09-24T00:01:47.360Z,3.00
2022-09-24T00:04:15.085Z,3.27
2022-09-24T00:06:47.996Z,3.30
2022-09-24T00:09:21.787Z,3.13
2022-09-24T00:11:52.229Z,3.30
2022-09-24T00:14:20.306Z,3.13
2022-09-24T00:16:47.881Z,3.20
2022-09-24T00:19:16.513Z,3.20
2022-09-24T00:21:44.446Z,3.13
2022-09-24T00:24:36.949Z,3.20
2022-09-24T00:27:06.409Z,3.13
2022-09-24T00:29:35.405Z,3.17
2022-09-24T00:32:05.513Z,3.20
2022-09-24T00:34:33.217Z,3.20
2022-09-24T00:37:00.789Z,3.10
2022-09-24T00:39:28.638Z,3.30
2022-09-24T00:41:56.107Z,3.20
2022-09-24T00:44:50.661Z,3.50
2022-09-24T00:47:41.183Z,3.20
2022-09-24T00:50:25.499Z,3.00
2022-09-24T00:52:59.930Z,3.30
2022-09-24T00:55:28.095Z,3.20
2022-09-24T00:58:03.310Z,3.30
2022-09-24T01:00:32.033Z,3.20
2022-09-24T01:03:05.521Z,3.23
2022-09-24T01:05:33.319Z,3.13
2022-09-24T01:08:00.886Z,3.33
2022-09-24T01:11:02.539Z,3.10
2022-09-24T01:13:43.802Z,3.20
2022-09-24T01:16:38.148Z,3.30
2022-09-24T01:20:02.240Z,3.27
2022-09-24T01:23:10.626Z,3.40
2022-09-24T01:26:08.726Z,3.60
2022-09-24T01:29:28.234Z,3.23
2022-09-24T01:32:11.704Z,3.60
2022-09-24T01:34:49.819Z,3.50
2022-09-24T01:37:22.461Z,3.33
2022-09-24T01:39:52.530Z,3.30
2022-09-24T01:42:23.350Z,3.47
2022-09-24T01:44:51.822Z,3.40
2022-09-24T01:47:35.117Z,3.30
2022-09-24T01:50:04.019Z,3.27
2022-09-24T01:52:40.714Z,3.33
2022-09-24T01:55:12.015Z,3.23
2022-09-24T01:58:20.883Z,3.50
2022-09-24T02:00:53.233Z,3.33
2022-09-24T02:03:28.756Z,3.50
2022-09-24T02:06:04.683Z,3.40
2022-09-24T02:08:39.249Z,3.30
2022-09-24T02:11:11.224Z,3.40
2022-09-24T02:13:48.114Z,3.30
2022-09-24T02:16:21.899Z,3.30
2022-09-24T02:18:55.678Z,3.40
2022-09-24T02:21:25.724Z,3.57
2022-09-24T02:24:08.663Z,3.60
2022-09-24T02:26:36.183Z,3.53
2022-09-24T02:29:05.220Z,3.47
2022-09-24T02:31:38.144Z,3.63
2022-09-24T02:34:21.563Z,3.80
2022-09-24T02:36:54.868Z,3.53
2022-09-24T02:39:22.449Z,3.83
2022-09-24T02:41:51.864Z,3.50
2022-09-24T02:44:20.476Z,3.40
2022-09-24T02:46:49.157Z,3.60
2022-09-24T02:49:17.252Z,3.53
2022-09-24T02:51:45.061Z,3.80
2022-09-24T02:54:12.067Z,3.60
2022-09-24T02:56:39.718Z,3.80
2022-09-24T02:59:07.982Z,3.80
2022-09-24T03:01:36.222Z,3.60
2022-09-24T03:04:04.001Z,3.80
2022-09-24T03:06:31.794Z,3.57
2022-09-24T03:09:00.804Z,3.77
2022-09-24T03:11:29.062Z,3.73
2022-09-24T03:13:56.545Z,3.60
2022-09-24T03:16:24.324Z,3.50
2022-09-24T03:18:52.069Z,3.77
2022-09-24T03:21:22.016Z,3.30
2022-09-24T03:23:49.793Z,3.53
2022-09-24T03:26:17.785Z,3.53
2022-09-24T03:28:45.433Z,3.80
2022-09-24T03:31:13.864Z,3.50
2022-09-24T03:33:47.678Z,3.47
2022-09-24T03:36:22.585Z,3.50
2022-09-24T03:38:55.271Z,3.60
2022-09-24T03:41:24.706Z,3.60
2022-09-24T03:43:52.128Z,3.70
2022-09-24T03:46:19.668Z,3.40
2022-09-24T03:48:47.561Z,3.60
2022-09-24T03:51:19.014Z,3.40
2022-09-24T03:53:47.697Z,3.50
2022-09-24T03:56:15.883Z,3.37
2022-09-24T03:58:47.286Z,3.47
2022-09-24T04:01:20.419Z,3.40
2022-09-24T04:03:50.275Z,3.30
2022-09-24T04:06:23.341Z,3.60
2022-09-24T04:08:52.542Z,3.40
2022-09-24T04:11:20.102Z,3.40
2022-09-24T04:13:47.533Z,3.30
2022-09-24T04:16:14.965Z,3.63
2022-09-24T04:18:41.934Z,3.37
2022-09-24T04:21:09.690Z,3.40
2022-09-24T04:23:37.151Z,3.60
2022-09-24T04:26:04.530Z,3.47
2022-09-24T04:28:31.985Z,3.50
2022-09-24T04:30:59.590Z,3.20
2022-09-24T04:33:27.042Z,3.57
2022-09-24T04:35:54.450Z,3.40
2022-09-24T04:38:21.918Z,3.63
2022-09-24T04:40:50.042Z,3.33
2022-09-24T04:43:19.050Z,3.47
2022-09-24T04:45:46.617Z,3.33
2022-09-24T04:48:14.723Z,3.60
2022-09-24T04:50:46.054Z,3.17
2022-09-24T04:53:14.626Z,3.30
2022-09-24T04:55:42.159Z,3.17
2022-09-24T04:58:10.454Z,3.33
2022-09-24T05:00:38.426Z,3.30
2022-09-24T05:03:05.960Z,3.40
2022-09-24T05:05:34.790Z,3.33
2022-09-24T05:08:02.911Z,3.30
2022-09-24T05:10:32.941Z,3.40
2022-09-24T05:13:02.033Z,3.30
2022-09-24T05:15:29.872Z,3.40
2022-09-24T05:17:57.281Z,3.27
2022-09-24T05:20:24.996Z,3.47
2022-09-24T05:22:52.583Z,3.27
2022-09-24T05:25:21.941Z,3.40
2022-09-24T05:27:53.575Z,3.37
2022-09-24T05:30:23.975Z,3.33
2022-09-24T05:32:54.723Z,3.30
2022-09-24T05:35:24.082Z,3.40
2022-09-24T05:37:53.603Z,3.30
2022-09-24T05:40:40.353Z,3.23
2022-09-24T05:43:08.050Z,3.33
2022-09-24T05:45:35.468Z,3.27
2022-09-24T05:48:02.991Z,3.50
2022-09-24T05:50:32.563Z,3.50
2022-09-24T05:53:00.207Z,3.20
2022-09-24T05:55:32.249Z,3.30
2022-09-24T05:58:10.428Z,3.30
2022-09-24T06:00:39.051Z,3.10
2022-09-24T06:03:15.434Z,3.40
2022-09-24T06:05:51.935Z,3.27
2022-09-24T06:08:20.888Z,3.50
2022-09-24T06:10:48.729Z,3.50
2022-09-24T06:13:20.713Z,3.40
2022-09-24T06:15:48.247Z,3.30
2022-09-24T06:18:15.809Z,3.30
2022-09-24T06:20:44.309Z,3.47
2022-09-24T06:23:11.692Z,3.23
2022-09-24T06:25:39.215Z,3.30
2022-09-24T06:28:06.727Z,3.40
2022-09-24T06:30:39.263Z,3.37
2022-09-24T06:33:10.504Z,3.27
2022-09-24T06:35:40.806Z,3.60
2022-09-24T06:38:14.753Z,3.37
2022-09-24T06:40:45.552Z,3.50
2022-09-24T06:43:14.312Z,3.50
2022-09-24T06:45:45.029Z,3.33
2022-09-24T06:48:14.131Z,3.47
2022-09-24T06:50:44.929Z,3.47
2022-09-24T06:53:13.217Z,3.60
2022-09-24T06:55:40.837Z,3.47
2022-09-24T06:58:11.374Z,3.63
2022-09-24T07:00:40.376Z,3.63
2022-09-24T07:03:13.782Z,3.60
2022-09-24T07:05:43.820Z,3.17
2022-09-24T07:08:11.713Z,3.27
2022-09-24T07:10:47.414Z,3.17
2022-09-24T07:13:15.662Z,3.20
2022-09-24T07:15:44.363Z,3.07
2022-09-24T07:18:12.655Z,3.07
2022-09-24T07:20:41.593Z,3.10
2022-09-24T07:23:11.257Z,3.30
2022-09-24T07:25:39.194Z,3.37
2022-09-24T07:28:10.258Z,3.10
2022-09-24T07:30:38.421Z,3.20
2022-09-24T07:33:07.215Z,3.60
2022-09-24T07:35:37.621Z,3.50
2022-09-24T07:38:14.230Z,3.50
2022-09-24T07:40:42.285Z,3.47
2022-09-24T07:43:12.330Z,3.40
2022-09-24T07:45:40.722Z,3.20
2022-09-24T07:48:09.834Z,3.60
2022-09-24T07:50:40.851Z,3.10
2022-09-24T07:53:12.580Z,3.07
2022-09-24T07:55:41.208Z,3.00
2022-09-24T07:58:15.298Z,2.87
2022-09-24T08:03:53.605Z,2.63
2022-09-24T08:06:23.102Z,2.90
2022-09-24T08:08:52.924Z,2.80
2022-09-24T08:11:21.317Z,2.87
2022-09-24T08:13:48.929Z,3.00
2022-09-24T08:16:16.836Z,2.70
2022-09-24T08:18:44.710Z,2.80
2022-09-24T08:21:13.137Z,2.50
2022-09-24T08:23:42.611Z,2.70
2022-09-24T08:26:12.051Z,2.60
2022-09-24T08:28:42.005Z,2.60
2022-09-24T08:31:12.804Z,2.60
2022-09-24T08:33:40.596Z,2.40
2022-09-24T08:36:09.931Z,2.53
2022-09-24T08:38:37.820Z,2.20
2022-09-24T08:41:17.408Z,2.10
2022-09-24T08:44:50.386Z,2.00
2022-09-24T08:47:30.175Z,2.10
2022-09-24T08:50:28.111Z,1.97
2022-09-24T08:53:21.622Z,1.93
2022-09-24T08:55:59.812Z,2.20
2022-09-24T08:58:45.661Z,2.30
2022-09-24T09:01:16.365Z,2.50
2022-09-24T09:04:03.456Z,2.30
2022-09-24T09:07:15.638Z,2.10
2022-09-24T09:09:54.066Z,2.20
2022-09-24T09:12:39.588Z,2.17
2022-09-24T09:15:28.469Z,2.10
2022-09-24T09:18:20.484Z,2.10
2022-09-24T09:20:50.067Z,2.30
2022-09-24T09:23:28.056Z,2.20
2022-09-24T09:26:00.073Z,2.33
2022-09-24T09:28:29.156Z,2.20
2022-09-24T09:31:11.635Z,2.30
2022-09-24T09:34:28.147Z,2.40
2022-09-24T09:37:26.141Z,2.37
2022-09-24T09:40:51.951Z,2.30
2022-09-24T09:43:20.812Z,2.60
2022-09-24T09:46:09.589Z,2.40
2022-09-24T09:48:59.441Z,2.40
2022-09-24T09:51:33.134Z,2.30
2022-09-24T09:54:03.150Z,2.20
2022-09-24T09:56:34.273Z,2.40
2022-09-24T09:59:07.778Z,2.50
2022-09-24T10:01:40.775Z,2.40
2022-09-24T10:04:39.479Z,2.53
2022-09-24T10:07:15.416Z,2.60
2022-09-24T10:09:45.935Z,2.50
2022-09-24T10:12:22.372Z,2.47
2022-09-24T10:15:06.085Z,2.47
2022-09-24T10:17:40.453Z,2.40
2022-09-24T10:20:29.773Z,2.07
2022-09-24T10:23:06.863Z,2.13
2022-09-24T10:25:38.077Z,2.00
2022-09-24T10:28:27.914Z,2.10
2022-09-24T10:31:04.839Z,2.07
2022-09-24T10:33:44.330Z,2.20
2022-09-24T10:36:24.994Z,2.10
2022-09-24T10:39:26.042Z,2.40
2022-09-24T10:41:59.826Z,2.30
2022-09-24T10:44:37.356Z,2.40
2022-09-24T10:47:22.489Z,2.27
2022-09-24T10:50:19.311Z,2.40
2022-09-24T10:53:29.149Z,2.30
2022-09-24T10:56:18.493Z,2.20
2022-09-24T10:59:07.695Z,2.30
2022-09-24T11:02:03.896Z,2.20
2022-09-24T11:04:51.707Z,2.20
2022-09-24T11:07:52.832Z,2.20
2022-09-24T11:10:30.743Z,2.50
2022-09-24T11:13:17.527Z,2.20
2022-09-24T11:16:08.949Z,2.40
2022-09-24T11:19:02.427Z,2.27
2022-09-24T11:22:09.375Z,2.30
2022-09-24T11:24:53.066Z,2.30
2022-09-24T11:27:38.339Z,2.30
2022-09-24T11:30:16.515Z,2.30
2022-09-24T11:33:22.921Z,2.20
2022-09-24T11:36:20.816Z,2.43
2022-09-24T11:39:35.127Z,2.30
2022-09-24T11:42:45.610Z,2.40
2022-09-24T11:45:27.719Z,2.27
2022-09-24T11:48:44.884Z,2.20
2022-09-24T11:51:48.432Z,2.40
2022-09-24T11:55:06.293Z,2.30
2022-09-24T11:58:20.315Z,2.40
2022-09-24T12:01:03.587Z,2.40
2022-09-24T12:03:36.803Z,2.30
2022-09-24T12:06:23.241Z,2.20
2022-09-24T12:09:02.372Z,2.20
2022-09-24T12:11:53.071Z,2.30
2022-09-24T12:14:30.439Z,2.40
2022-09-24T12:17:07.860Z,2.20
2022-09-24T12:19:58.700Z,2.17
2022-09-24T12:22:28.063Z,2.40
2022-09-24T12:25:00.540Z,2.30
2022-09-24T12:27:39.201Z,2.40
2022-09-24T12:30:59.821Z,2.30
2022-09-24T12:33:53.204Z,2.40
2022-09-24T12:36:36.065Z,2.30
2022-09-24T12:39:10.652Z,2.27
2022-09-24T12:41:51.572Z,2.27
2022-09-24T12:44:50.365Z,2.20
2022-09-24T12:47:25.605Z,2.40
2022-09-24T12:50:01.764Z,2.40
2022-09-24T12:52:37.406Z,2.40
2022-09-24T12:55:19.984Z,2.37
2022-09-24T12:58:23.993Z,2.57
2022-09-24T13:00:53.709Z,2.40
2022-09-24T13:03:44.655Z,2.47
2022-09-24T13:06:37.633Z,2.27
2022-09-24T13:09:26.089Z,2.37
2022-09-24T13:12:23.136Z,2.50
2022-09-24T13:15:10.321Z,2.50
2022-09-24T13:17:38.719Z,2.40
2022-09-24T13:20:14.683Z,2.40
2022-09-24T13:22:43.366Z,2.40
2022-09-24T13:25:11.734Z,2.50
2022-09-24T13:27:43.045Z,2.40
2022-09-24T13:30:20.645Z,2.43
2022-09-24T13:33:31.253Z,2.50
2022-09-24T13:36:07.918Z,2.30
2022-09-24T13:38:57.093Z,2.37
2022-09-24T13:42:35.485Z,2.30
2022-09-24T13:45:14.458Z,2.20
2022-09-24T13:47:49.106Z,2.40
2022-09-24T13:50:40.665Z,2.40
2022-09-24T13:53:42.801Z,2.17
2022-09-24T13:56:17.394Z,2.27
2022-09-24T13:58:45.467Z,2.30
2022-09-24T14:01:29.795Z,2.20
2022-09-24T14:04:04.491Z,2.30
2022-09-24T14:06:42.548Z,2.37
2022-09-24T14:09:34.723Z,2.30
2022-09-24T14:12:22.469Z,2.30
2022-09-24T14:14:58.048Z,2.33
2022-09-24T14:17:25.882Z,2.30
2022-09-24T14:19:57.491Z,2.40
2022-09-24T14:22:33.359Z,2.27
2022-09-24T14:25:08.883Z,2.23
2022-09-24T14:27:48.063Z,2.23
2022-09-24T14:30:22.314Z,2.33
2022-09-24T14:33:16.359Z,2.30
2022-09-24T14:35:51.132Z,2.30
2022-09-24T14:38:31.194Z,2.30
2022-09-24T14:41:21.609Z,2.33
2022-09-24T14:43:59.995Z,2.60
2022-09-24T14:46:40.775Z,2.50
2022-09-24T14:49:45.367Z,2.57
2022-09-24T14:52:37.700Z,2.70
2022-09-24T14:55:20.025Z,2.80
2022-09-24T14:57:54.000Z,2.67
2022-09-24T15:00:28.224Z,2.83
2022-09-24T15:03:07.322Z,2.90
2022-09-24T15:05:34.991Z,2.80
2022-09-24T15:08:28.995Z,2.60
2022-09-24T15:11:06.343Z,2.50
2022-09-24T15:13:38.367Z,2.50
2022-09-24T15:16:31.713Z,2.43
2022-09-24T15:18:59.188Z,2.40
2022-09-24T15:21:27.760Z,2.40
2022-09-24T15:23:56.543Z,2.70
2022-09-24T15:26:30.548Z,2.60
2022-09-24T15:28:59.836Z,2.70
2022-09-24T15:31:29.093Z,3.03
2022-09-24T15:33:57.824Z,3.23
2022-09-24T15:36:25.744Z,3.17
2022-09-24T15:39:04.586Z,3.00
2022-09-24T15:41:34.314Z,3.10
2022-09-24T15:44:08.469Z,3.20
2022-09-24T15:46:38.806Z,2.83
2022-09-24T15:49:09.601Z,2.80
2022-09-24T15:51:40.581Z,2.70
2022-09-24T15:54:11.588Z,2.70
2022-09-24T15:56:44.268Z,2.70
2022-09-24T15:59:16.352Z,2.90
2022-09-24T16:01:44.267Z,2.63
2022-09-24T16:04:12.567Z,2.47
2022-09-24T16:06:40.242Z,2.50
2022-09-24T16:09:07.846Z,2.60
2022-09-24T16:11:35.677Z,2.90
2022-09-24T16:14:03.165Z,2.63
2022-09-24T16:16:30.872Z,2.67
2022-09-24T16:18:58.589Z,2.80
2022-09-24T16:21:25.624Z,2.77
2022-09-24T16:23:56.980Z,3.00
2022-09-24T16:26:24.565Z,2.83
2022-09-24T16:28:52.438Z,2.90
2022-09-24T16:31:20.643Z,3.00
2022-09-24T16:33:48.525Z,2.73
2022-09-24T16:36:16.388Z,2.80
2022-09-24T16:38:43.817Z,2.90
2022-09-24T16:41:11.381Z,3.00
2022-09-24T16:43:38.902Z,2.90
2022-09-24T16:46:10.305Z,3.17
2022-09-24T16:48:38.044Z,3.37
2022-09-24T16:51:11.365Z,3.40
2022-09-24T16:53:39.308Z,3.10
2022-09-24T16:56:17.675Z,3.03
2022-09-24T16:58:47.045Z,3.30
2022-09-24T17:01:17.831Z,3.07
2022-09-24T17:03:59.371Z,3.20
2022-09-24T17:06:30.059Z,3.53
2022-09-24T17:09:16.798Z,3.30
2022-09-24T17:11:48.384Z,3.37
2022-09-24T17:14:17.453Z,3.60
2022-09-24T17:16:45.522Z,3.57
2022-09-24T17:19:13.523Z,3.87
2022-09-24T17:21:45.831Z,3.63
2022-09-24T17:24:16.437Z,3.87
2022-09-24T17:26:47.810Z,3.43
2022-09-24T17:29:15.286Z,3.43
2022-09-24T17:31:42.813Z,3.47
2022-09-24T17:34:12.384Z,3.53
2022-09-24T17:36:39.828Z,3.53
2022-09-24T17:39:07.622Z,3.50
2022-09-24T17:41:36.070Z,3.30
2022-09-24T17:44:03.522Z,3.63
2022-09-24T17:46:32.450Z,3.30
2022-09-24T17:49:01.166Z,3.63
2022-09-24T17:51:36.595Z,3.50
2022-09-24T17:54:11.510Z,3.43
2022-09-24T17:56:40.393Z,3.47
2022-09-24T17:59:11.600Z,3.57
2022-09-24T18:01:41.349Z,3.37
2022-09-24T18:04:16.801Z,3.83
2022-09-24T18:06:46.880Z,3.10
2022-09-24T18:09:16.818Z,3.83
2022-09-24T18:11:51.271Z,3.40
2022-09-24T18:14:22.530Z,3.50
2022-09-24T18:16:50.722Z,3.33
2022-09-24T18:19:18.667Z,3.47
2022-09-24T18:21:51.378Z,3.20
2022-09-24T18:24:19.052Z,3.33
2022-09-24T18:26:51.229Z,3.30
2022-09-24T18:29:20.145Z,3.43
2022-09-24T18:31:47.857Z,3.20
2022-09-24T18:34:16.197Z,3.23
2022-09-24T18:36:45.252Z,3.17
2022-09-24T18:39:21.725Z,3.17
2022-09-24T18:41:49.596Z,2.93
2022-09-24T18:44:17.212Z,2.97
2022-09-24T18:46:45.441Z,3.00
2022-09-24T18:49:12.989Z,2.97
2022-09-24T18:51:40.560Z,3.03
2022-09-24T18:54:13.803Z,2.93
2022-09-24T18:56:42.736Z,3.03
2022-09-24T18:59:20.219Z,3.10
2022-09-24T19:01:50.502Z,2.77
2022-09-24T19:04:19.109Z,2.80
2022-09-24T19:06:48.224Z,2.80
2022-09-24T19:09:18.131Z,2.73
2022-09-24T19:11:46.704Z,2.80
2022-09-24T19:14:17.887Z,2.77
2022-09-24T19:16:47.108Z,2.70
2022-09-24T19:19:15.987Z,2.80
2022-09-24T19:21:43.768Z,2.80
2022-09-24T19:24:12.225Z,2.77
2022-09-24T19:26:39.756Z,2.70
2022-09-24T19:29:06.816Z,2.77
2022-09-24T19:31:37.994Z,2.73
2022-09-24T19:34:08.935Z,3.00
2022-09-24T19:36:44.921Z,2.93
2022-09-24T19:39:15.794Z,2.70
2022-09-24T19:41:44.105Z,2.90
2022-09-24T19:44:12.447Z,2.70
2022-09-24T19:46:40.871Z,2.87
2022-09-24T19:49:08.559Z,2.90
2022-09-24T19:51:37.019Z,2.77
2022-09-24T19:54:10.383Z,2.97
2022-09-24T19:56:38.382Z,2.77
2022-09-24T19:59:05.832Z,2.90
2022-09-24T20:01:34.316Z,2.90
2022-09-24T20:04:06.790Z,3.00
2022-09-24T20:06:36.569Z,2.80
2022-09-24T20:09:04.754Z,2.80
2022-09-24T20:11:32.750Z,2.80
2022-09-24T20:14:01.625Z,2.77
2022-09-24T20:16:33.063Z,2.73
2022-09-24T20:19:02.621Z,2.83
2022-09-24T20:21:34.328Z,3.00
2022-09-24T20:24:03.464Z,2.80
2022-09-24T20:26:50.021Z,2.83
2022-09-24T20:29:19.704Z,3.00
2022-09-24T20:31:51.619Z,2.87
2022-09-24T20:34:37.309Z,2.80
2022-09-24T20:37:05.761Z,3.00
2022-09-24T20:39:33.554Z,3.03
2022-09-24T20:42:03.588Z,2.77
2022-09-24T20:44:32.341Z,3.00
2022-09-24T20:47:00.449Z,2.80
2022-09-24T20:49:29.674Z,2.80
2022-09-24T20:51:58.018Z,2.93
2022-09-24T20:54:28.407Z,2.80
2022-09-24T20:56:56.490Z,2.80
2022-09-24T20:59:25.821Z,2.80
2022-09-24T21:01:54.118Z,2.90
2022-09-24T21:04:22.335Z,3.00
2022-09-24T21:06:50.428Z,2.90
2022-09-24T21:09:18.271Z,3.00
2022-09-24T21:11:45.795Z,2.90
2022-09-24T21:14:14.544Z,2.90
2022-09-24T21:16:42.082Z,2.90
2022-09-24T21:19:10.661Z,3.07
2022-09-24T21:21:38.938Z,3.03
2022-09-24T21:24:11.468Z,2.83
2022-09-24T21:26:39.827Z,2.90
2022-09-24T21:29:17.075Z,2.90
2022-09-24T21:31:46.567Z,2.90
2022-09-24T21:34:17.543Z,2.97
2022-09-24T21:36:45.951Z,3.00
2022-09-24T21:39:22.841Z,3.07
2022-09-24T21:41:54.783Z,2.80
2022-09-24T21:44:22.419Z,2.93
2022-09-24T21:46:52.024Z,2.90
2022-09-24T21:49:19.861Z,2.93
2022-09-24T21:51:47.651Z,2.80
2022-09-24T21:54:18.247Z,2.80
2022-09-24T21:56:46.602Z,2.70
2022-09-24T21:59:34.092Z,2.80
2022-09-24T22:02:02.997Z,2.80
2022-09-24T22:04:32.943Z,2.83
2022-09-24T22:07:01.243Z,2.80
2022-09-24T22:09:29.750Z,2.83
2022-09-24T22:11:59.987Z,2.83
2022-09-24T22:14:27.987Z,2.80
2022-09-24T22:16:56.569Z,2.80
2022-09-24T22:19:24.183Z,2.90
2022-09-24T22:21:52.253Z,2.73
2022-09-24T22:24:19.935Z,2.73
2022-09-24T22:26:47.429Z,2.80
2022-09-24T22:29:14.950Z,2.80
2022-09-24T22:31:42.490Z,2.77
2022-09-24T22:34:29.588Z,2.67
2022-09-24T22:36:57.432Z,2.77
2022-09-24T22:39:24.876Z,2.90
2022-09-24T22:41:52.522Z,2.70
2022-09-24T22:44:19.960Z,2.80
2022-09-24T22:46:47.457Z,2.73
2022-09-24T22:49:15.013Z,2.90
2022-09-24T22:51:42.421Z,2.80
2022-09-24T22:54:10.284Z,2.87
2022-09-24T22:56:37.851Z,2.80
2022-09-24T22:59:05.983Z,2.97
2022-09-24T23:01:44.500Z,2.77
2022-09-24T23:04:15.381Z,2.83
2022-09-24T23:06:43.633Z,2.90
2022-09-24T23:09:12.122Z,2.73
2022-09-24T23:11:39.992Z,2.87
2022-09-24T23:14:17.029Z,2.77
2022-09-24T23:16:46.529Z,2.80
2022-09-24T23:19:19.665Z,2.80
2022-09-24T23:21:47.403Z,2.70
2022-09-24T23:24:19.874Z,2.70
2022-09-24T23:26:47.806Z,2.73
2022-09-24T23:29:15.558Z,2.80
2022-09-24T23:31:43.014Z,2.80
2022-09-24T23:34:14.061Z,2.70
2022-09-24T23:36:42.321Z,2.80
2022-09-24T23:39:10.095Z,2.70
2022-09-24T23:41:37.736Z,2.70
2022-09-24T23:44:05.277Z,2.77
2022-09-24T23:46:35.944Z,2.80
2022-09-24T23:49:04.014Z,3.07
2022-09-24T23:51:31.470Z,2.73
2022-09-24T23:53:58.961Z,2.87
2022-09-24T23:56:26.470Z,2.73
2022-09-24T23:58:54.883Z,2.77
